Time;durP1;ratioP1;P1;durP2;ratioP2;P2;SDS_P1;SDS_P2;PMS_P1;PMS_P2;Temp;Humidity;BMP_temperature;BMP_pressure;BME280_temperature;BME280_humidity;BME280_pressure;Samples;Min_cycle;Max_cycle;Signal;HPM_P1;HPM_P2
2023/04/27 00:02:22;;;;;;;4.38;3.80;;;;;;;;;;10141166;28;20060;-66
2023/04/27 00:07:16;;;;;;;4.13;3.60;;;;;;;;;;10129946;28;20461;-67
2023/04/27 00:12:09;;;;;;;9.60;4.13;;;;;;;;;;10132869;28;20063;-67
2023/04/27 00:17:03;;;;;;;6.97;4.10;;;;;;;;;;10133273;28;20045;-66
2023/04/27 00:21:58;;;;;;;6.85;4.03;;;;;;;;;;10144599;28;20051;-67
2023/04/27 00:26:52;;;;;;;6.53;4.25;;;;;;;;;;10137958;28;20045;-67
2023/04/27 00:31:46;;;;;;;4.68;4.18;;;;;;;;;;10105233;28;21913;-67
2023/04/27 00:36:39;;;;;;;7.13;5.07;;;;;;;;;;10120428;28;20507;-68
2023/04/27 00:41:35;;;;;;;13.10;4.63;;;;;;;;;;10127748;28;20116;-67
2023/04/27 00:46:28;;;;;;;7.63;5.22;;;;;;;;;;10103934;28;20045;-67
2023/04/27 00:51:26;;;;;;;9.57;5.45;;;;;;;;;;10067156;28;20054;-67
2023/04/27 00:56:20;;;;;;;11.55;7.03;;;;;;;;;;10076187;28;20069;-67
2023/04/27 01:01:13;;;;;;;10.82;6.57;;;;;;;;;;10071290;28;20419;-67
2023/04/27 01:06:07;;;;;;;11.65;8.02;;;;;;;;;;10084712;28;20048;-67
2023/04/27 01:11:00;;;;;;;8.18;5.82;;;;;;;;;;10093688;28;20048;-67
2023/04/27 01:15:54;;;;;;;12.43;7.00;;;;;;;;;;10057800;28;20046;-67
2023/04/27 01:20:50;;;;;;;16.85;7.10;;;;;;;;;;10073700;28;20054;-67
2023/04/27 01:25:42;;;;;;;9.65;7.97;;;;;;;;;;10104106;28;20540;-67
2023/04/27 01:30:36;;;;;;;11.80;8.20;;;;;;;;;;10103501;28;20055;-67
2023/04/27 01:35:29;;;;;;;22.23;11.50;;;;;;;;;;10081659;28;20052;-66
2023/04/27 01:40:24;;;;;;;11.65;8.30;;;;;;;;;;10083659;28;20060;-67
2023/04/27 01:45:18;;;;;;;8.77;6.70;;;;;;;;;;10057987;28;20497;-67
2023/04/27 01:50:12;;;;;;;8.85;6.80;;;;;;;;;;10072944;28;20087;-66
2023/04/27 01:55:08;;;;;;;10.55;6.57;;;;;;;;;;10094036;28;20056;-66
2023/04/27 02:00:04;;;;;;;9.43;5.30;;;;;;;;;;10083586;28;20412;-66
2023/04/27 02:05:12;;;;;;;10.90;5.28;;;;;;;;;;10082096;28;20084;-66
2023/04/27 02:10:05;;;;;;;7.55;5.75;;;;;;;;;;10087379;28;20439;-66
2023/04/27 02:14:59;;;;;;;8.73;6.35;;;;;;;;;;10070032;28;20045;-66
2023/04/27 02:19:53;;;;;;;9.82;6.10;;;;;;;;;;10063206;28;20056;-66
2023/04/27 02:24:46;;;;;;;11.75;5.57;;;;;;;;;;10079585;28;20068;-66
2023/04/27 02:29:40;;;;;;;6.82;5.30;;;;;;;;;;10075878;28;20493;-67
2023/04/27 02:34:34;;;;;;;9.90;7.72;;;;;;;;;;10055856;28;20057;-67
2023/04/27 02:39:28;;;;;;;10.90;5.82;;;;;;;;;;10061366;28;20152;-67
2023/04/27 02:44:22;;;;;;;21.42;9.27;;;;;;;;;;10078859;28;20045;-67
2023/04/27 02:49:16;;;;;;;12.70;8.70;;;;;;;;;;10087101;28;20060;-65
2023/04/27 02:54:09;;;;;;;10.23;8.00;;;;;;;;;;10093555;28;20044;-65
2023/04/27 02:59:02;;;;;;;11.63;8.23;;;;;;;;;;10142270;28;20128;-65
2023/04/27 03:03:56;;;;;;;13.48;8.35;;;;;;;;;;10114298;28;20057;-65
2023/04/27 03:08:51;;;;;;;10.85;8.48;;;;;;;;;;10114150;28;20056;-67
2023/04/27 03:13:45;;;;;;;8.02;6.43;;;;;;;;;;10132993;28;20099;-66
2023/04/27 03:18:38;;;;;;;8.52;6.65;;;;;;;;;;10118448;28;20051;-67
2023/04/27 03:23:33;;;;;;;10.00;6.78;;;;;;;;;;10124066;28;20420;-66
2023/04/27 03:28:26;;;;;;;8.60;6.85;;;;;;;;;;10118335;28;20091;-66
2023/04/27 03:33:21;;;;;;;9.13;6.72;;;;;;;;;;10118630;28;20059;-66
2023/04/27 03:38:14;;;;;;;8.57;6.68;;;;;;;;;;10113641;28;20054;-66
2023/04/27 03:43:08;;;;;;;10.07;7.38;;;;;;;;;;10099335;28;20082;-66
2023/04/27 03:48:02;;;;;;;9.27;7.78;;;;;;;;;;10126105;28;20113;-66
2023/04/27 03:52:55;;;;;;;16.23;9.35;;;;;;;;;;10124634;28;20178;-66
2023/04/27 03:57:48;;;;;;;13.07;8.73;;;;;;;;;;10117752;28;20416;-67
2023/04/27 04:02:41;;;;;;;10.52;8.55;;;;;;;;;;10117159;28;20041;-67
2023/04/27 04:07:35;;;;;;;9.38;7.40;;;;;;;;;;10127666;28;20055;-67
2023/04/27 04:12:28;;;;;;;7.80;5.78;;;;;;;;;;10109808;28;20044;-66
2023/04/27 04:17:22;;;;;;;6.00;5.25;;;;;;;;;;10107340;28;20120;-66
2023/04/27 04:22:16;;;;;;;8.65;5.47;;;;;;;;;;10110435;28;20052;-66
2023/04/27 04:27:10;;;;;;;6.75;4.93;;;;;;;;;;10094612;28;20416;-65
2023/04/27 04:32:03;;;;;;;7.95;4.10;;;;;;;;;;10106092;28;20423;-67
2023/04/27 04:36:57;;;;;;;6.40;4.35;;;;;;;;;;10102008;28;20636;-67
2023/04/27 04:41:50;;;;;;;5.35;4.03;;;;;;;;;;10119358;28;20057;-67
2023/04/27 04:46:43;;;;;;;5.20;4.70;;;;;;;;;;10111011;28;20049;-67
2023/04/27 04:51:41;;;;;;;5.65;4.35;;;;;;;;;;10067943;28;20064;-67
2023/04/27 04:56:36;;;;;;;6.97;5.18;;;;;;;;;;10066676;28;20049;-67
2023/04/27 05:01:30;;;;;;;5.05;4.55;;;;;;;;;;10079819;28;20052;-68
2023/04/27 05:06:24;;;;;;;6.65;5.57;;;;;;;;;;10086526;28;20048;-68
2023/04/27 05:11:17;;;;;;;6.53;5.88;;;;;;;;;;10076585;28;20045;-68
2023/04/27 05:16:11;;;;;;;6.88;5.60;;;;;;;;;;10094724;28;20049;-67
2023/04/27 05:21:06;;;;;;;8.40;5.57;;;;;;;;;;10063755;28;20045;-67
2023/04/27 05:25:59;;;;;;;6.70;5.65;;;;;;;;;;10077271;28;20061;-67
2023/04/27 05:30:54;;;;;;;8.63;5.85;;;;;;;;;;10089719;28;20075;-68
2023/04/27 05:35:49;;;;;;;15.88;5.65;;;;;;;;;;10077629;28;20065;-68
2023/04/27 05:40:42;;;;;;;7.95;4.95;;;;;;;;;;10084175;28;20045;-65
2023/04/27 05:45:40;;;;;;;5.80;5.30;;;;;;;;;;10099079;28;20148;-68
2023/04/27 05:50:33;;;;;;;9.55;5.43;;;;;;;;;;10148256;28;20110;-68
2023/04/27 05:55:28;;;;;;;5.93;5.20;;;;;;;;;;10146750;28;20057;-67
2023/04/27 06:00:23;;;;;;;5.32;4.82;;;;;;;;;;10125066;28;20506;-68
2023/04/27 06:05:18;;;;;;;8.00;6.25;;;;;;;;;;10121659;28;20057;-67
2023/04/27 06:10:11;;;;;;;8.65;6.28;;;;;;;;;;10129257;28;20044;-67
2023/04/27 06:15:09;;;;;;;13.15;6.22;;;;;;;;;;10116648;28;20048;-67
2023/04/27 06:20:05;;;;;;;8.07;7.10;;;;;;;;;;10125197;28;20090;-67
2023/04/27 06:24:58;;;;;;;6.63;5.93;;;;;;;;;;10150671;28;20136;-70
2023/04/27 06:29:50;;;;;;;12.45;7.43;;;;;;;;;;10136141;28;20048;-74
2023/04/27 06:34:45;;;;;;;8.18;6.47;;;;;;;;;;10147283;28;20054;-69
2023/04/27 06:39:38;;;;;;;9.57;6.22;;;;;;;;;;10150272;28;20097;-65
2023/04/27 06:44:31;;;;;;;8.40;7.55;;;;;;;;;;10152311;28;20040;-67
2023/04/27 06:49:25;;;;;;;9.45;8.15;;;;;;;;;;10159576;28;20060;-67
2023/04/27 06:54:19;;;;;;;9.48;8.52;;;;;;;;;;10162423;28;20522;-64
2023/04/27 06:59:13;;;;;;;11.70;9.35;;;;;;;;;;10143942;28;20040;-65
2023/04/27 07:04:06;;;;;;;9.02;7.97;;;;;;;;;;10155851;28;20044;-65
2023/04/27 07:09:00;;;;;;;12.70;8.98;;;;;;;;;;10154803;28;20194;-64
2023/04/27 07:13:56;;;;;;;14.60;10.43;;;;;;;;;;10158664;28;20418;-64
2023/04/27 07:18:50;;;;;;;11.15;9.65;;;;;;;;;;10149333;28;20110;-64
2023/04/27 07:23:45;;;;;;;10.82;9.55;;;;;;;;;;10155427;28;20052;-67
2023/04/27 07:28:38;;;;;;;12.43;10.00;;;;;;;;;;10156980;28;20102;-66
2023/04/27 07:33:32;;;;;;;14.52;9.90;;;;;;;;;;10143264;28;20733;-64
2023/04/27 07:38:27;;;;;;;12.50;9.32;;;;;;;;;;10141899;28;20067;-67
2023/04/27 07:43:22;;;;;;;13.68;10.55;;;;;;;;;;10147037;28;20052;-66
2023/04/27 07:48:17;;;;;;;12.40;10.05;;;;;;;;;;10143489;28;20149;-66
2023/04/27 07:53:10;;;;;;;11.45;9.52;;;;;;;;;;10114549;28;20102;-65
2023/04/27 07:58:03;;;;;;;13.52;9.23;;;;;;;;;;10118657;28;20060;-65
2023/04/27 08:02:57;;;;;;;13.32;10.07;;;;;;;;;;10119400;28;20056;-65
2023/04/27 08:07:52;;;;;;;17.85;11.07;;;;;;;;;;10130430;28;20053;-66
2023/04/27 08:12:47;;;;;;;11.93;9.60;;;;;;;;;;10125762;28;20055;-66
2023/04/27 08:17:40;;;;;;;15.30;10.82;;;;;;;;;;10139891;28;20071;-66
2023/04/27 08:22:34;;;;;;;18.90;10.90;;;;;;;;;;10115848;28;20056;-66
2023/04/27 08:27:27;;;;;;;12.27;9.38;;;;;;;;;;10099483;28;20048;-66
2023/04/27 08:32:20;;;;;;;12.50;9.25;;;;;;;;;;10114134;28;20041;-66
2023/04/27 08:37:14;;;;;;;15.85;9.95;;;;;;;;;;10123869;28;20053;-66
2023/04/27 08:42:12;;;;;;;11.52;9.23;;;;;;;;;;10114294;28;20055;-66
2023/04/27 08:47:06;;;;;;;8.40;7.15;;;;;;;;;;10123682;28;20508;-67
2023/04/27 08:52:00;;;;;;;9.40;7.43;;;;;;;;;;10128350;28;20451;-67
2023/04/27 08:56:55;;;;;;;9.98;6.13;;;;;;;;;;10136175;28;20056;-67
2023/04/27 09:01:50;;;;;;;8.93;6.43;;;;;;;;;;10113068;28;20045;-67
2023/04/27 09:06:44;;;;;;;8.13;6.38;;;;;;;;;;10106101;28;20052;-67
2023/04/27 09:11:40;;;;;;;10.63;6.40;;;;;;;;;;10111562;28;20053;-67
2023/04/27 09:16:35;;;;;;;11.15;6.55;;;;;;;;;;10113649;28;20053;-66
2023/04/27 09:21:48;;;;;;;9.25;6.60;;;;;;;;;;10113270;28;20057;-66
2023/04/27 09:26:49;;;;;;;7.38;5.22;;;;;;;;;;10115427;28;20049;-66
2023/04/27 09:31:42;;;;;;;13.27;6.97;;;;;;;;;;10124167;28;20079;-67
2023/04/27 09:36:36;;;;;;;9.50;6.00;;;;;;;;;;10126695;28;20056;-66
2023/04/27 09:41:29;;;;;;;5.63;5.10;;;;;;;;;;10118497;28;20458;-67
2023/04/27 09:46:24;;;;;;;8.93;4.95;;;;;;;;;;10127834;28;20124;-67
2023/04/27 09:51:18;;;;;;;11.40;5.73;;;;;;;;;;10123193;28;20049;-66
2023/04/27 09:56:38;;;;;;;6.75;5.70;;;;;;;;;;10130763;28;20060;-65
2023/04/27 10:01:39;;;;;;;5.97;5.38;;;;;;;;;;10120893;28;20045;-66
2023/04/27 10:06:51;;;;;;;6.20;5.43;;;;;;;;;;10134143;28;20114;-66
2023/04/27 10:11:46;;;;;;;8.85;4.38;;;;;;;;;;10111570;28;20056;-65
2023/04/27 10:16:59;;;;;;;4.70;3.78;;;;;;;;;;10142364;28;20060;-65
2023/04/27 10:22:14;;;;;;;6.15;3.20;;;;;;;;;;10127425;28;20080;-65
2023/04/27 10:27:11;;;;;;;6.88;3.17;;;;;;;;;;10133933;28;20068;-66
2023/04/27 10:32:20;;;;;;;5.18;3.55;;;;;;;;;;10131657;28;20548;-66
2023/04/27 10:37:14;;;;;;;3.88;3.15;;;;;;;;;;10120778;28;20045;-67
2023/04/27 10:42:08;;;;;;;6.35;3.88;;;;;;;;;;10117978;28;20090;-66
2023/04/27 10:47:33;;;;;;;3.75;3.40;;;;;;;;;;10129453;28;20055;-65
2023/04/27 10:52:26;;;;;;;4.88;3.53;;;;;;;;;;10120675;28;20056;-67
2023/04/27 10:57:19;;;;;;;3.90;3.60;;;;;;;;;;10094405;28;20049;-66
2023/04/27 11:02:14;;;;;;;5.22;3.65;;;;;;;;;;10126073;28;20479;-68
2023/04/27 11:07:09;;;;;;;17.48;4.18;;;;;;;;;;10123867;28;20401;-65
2023/04/27 11:12:08;;;;;;;4.93;2.88;;;;;;;;;;10114609;28;20053;-64
2023/04/27 11:17:01;;;;;;;3.50;3.20;;;;;;;;;;10118799;28;20132;-64
2023/04/27 11:22:03;;;;;;;5.75;2.65;;;;;;;;;;10134839;28;20048;-65
2023/04/27 11:26:56;;;;;;;6.53;2.90;;;;;;;;;;10131606;28;20056;-65
2023/04/27 11:31:51;;;;;;;3.53;2.80;;;;;;;;;;10128095;28;20056;-64
2023/04/27 11:36:59;;;;;;;3.03;2.78;;;;;;;;;;10132788;28;20492;-64
2023/04/27 11:42:22;;;;;;;4.72;3.17;;;;;;;;;;10121169;28;20041;-65
2023/04/27 11:47:22;;;;;;;4.82;2.30;;;;;;;;;;10110598;28;20067;-67
2023/04/27 11:52:16;;;;;;;6.97;2.30;;;;;;;;;;10128074;28;20105;-66
2023/04/27 11:57:09;;;;;;;2.70;1.75;;;;;;;;;;10124251;28;20076;-65
2023/04/27 12:02:03;;;;;;;7.53;2.78;;;;;;;;;;10092085;28;20141;-64
2023/04/27 12:06:57;;;;;;;3.38;2.00;;;;;;;;;;10126330;28;20511;-63
2023/04/27 12:11:50;;;;;;;3.03;1.77;;;;;;;;;;10133183;28;20060;-65
2023/04/27 12:16:45;;;;;;;3.53;1.52;;;;;;;;;;10122984;28;20059;-65
2023/04/27 12:21:38;;;;;;;4.07;1.95;;;;;;;;;;10119895;28;20087;-66
2023/04/27 12:26:33;;;;;;;3.47;2.00;;;;;;;;;;10118047;28;20053;-65
2023/04/27 12:31:27;;;;;;;3.88;2.28;;;;;;;;;;10127735;28;20131;-65
2023/04/27 12:36:21;;;;;;;3.22;2.22;;;;;;;;;;10128333;28;20056;-65
2023/04/27 12:41:15;;;;;;;3.10;1.60;;;;;;;;;;10126243;28;20440;-64
2023/04/27 12:46:09;;;;;;;2.03;1.17;;;;;;;;;;10122709;28;20063;-65
2023/04/27 12:51:03;;;;;;;2.92;1.42;;;;;;;;;;10099555;28;20107;-65
2023/04/27 12:56:00;;;;;;;8.23;1.10;;;;;;;;;;10084896;28;20108;-65
2023/04/27 13:00:56;;;;;;;4.75;1.42;;;;;;;;;;10075802;28;20096;-65
2023/04/27 13:05:51;;;;;;;1.60;1.08;;;;;;;;;;10096187;28;20458;-65
2023/04/27 13:10:44;;;;;;;4.32;1.40;;;;;;;;;;10108917;28;20570;-64
2023/04/27 13:15:38;;;;;;;2.15;1.80;;;;;;;;;;10111410;28;20052;-65
2023/04/27 13:20:31;;;;;;;9.07;1.45;;;;;;;;;;10101309;28;20126;-65
2023/04/27 13:25:27;;;;;;;2.83;1.90;;;;;;;;;;10080686;28;20053;-65
2023/04/27 13:30:20;;;;;;;5.85;1.30;;;;;;;;;;10076443;28;20093;-66
2023/04/27 13:35:14;;;;;;;2.58;1.70;;;;;;;;;;10110582;28;20053;-65
2023/04/27 13:40:11;;;;;;;3.95;1.20;;;;;;;;;;10103752;28;20115;-66
2023/04/27 13:45:07;;;;;;;2.97;2.03;;;;;;;;;;10098442;28;20160;-65
2023/04/27 13:50:08;;;;;;;5.20;1.90;;;;;;;;;;10127489;28;20063;-65
2023/04/27 13:55:03;;;;;;;7.85;1.67;;;;;;;;;;10139720;28;20046;-65
2023/04/27 13:59:56;;;;;;;5.30;1.77;;;;;;;;;;10159928;28;20037;-64
2023/04/27 14:04:50;;;;;;;5.20;1.90;;;;;;;;;;10143065;28;20048;-66
2023/04/27 14:09:43;;;;;;;5.25;2.25;;;;;;;;;;10139074;28;20049;-65
2023/04/27 14:14:36;;;;;;;4.25;2.10;;;;;;;;;;10154685;28;20819;-63
2023/04/27 14:19:30;;;;;;;1.80;1.27;;;;;;;;;;10151285;28;20045;-64
2023/04/27 14:24:24;;;;;;;2.97;2.10;;;;;;;;;;10143452;28;20049;-66
2023/04/27 14:29:17;;;;;;;4.45;1.50;;;;;;;;;;10146415;28;20538;-66
2023/04/27 14:34:15;;;;;;;3.35;1.75;;;;;;;;;;10140053;28;20412;-65
2023/04/27 14:39:13;;;;;;;3.55;1.50;;;;;;;;;;10147930;28;20102;-66
2023/04/27 14:44:08;;;;;;;1.92;1.38;;;;;;;;;;10134244;28;20637;-65
2023/04/27 14:49:01;;;;;;;5.80;1.30;;;;;;;;;;10122060;28;20126;-66
2023/04/27 14:53:55;;;;;;;1.10;1.00;;;;;;;;;;10107045;28;20053;-65
2023/04/27 14:58:48;;;;;;;5.05;1.80;;;;;;;;;;10094363;28;20480;-66
2023/04/27 15:03:41;;;;;;;4.25;1.33;;;;;;;;;;10106404;28;20136;-64
2023/04/27 15:08:35;;;;;;;6.53;1.50;;;;;;;;;;10102196;28;20092;-63
2023/04/27 15:13:29;;;;;;;6.70;2.17;;;;;;;;;;10100140;28;20470;-67
2023/04/27 15:18:22;;;;;;;3.05;1.60;;;;;;;;;;10094072;28;20780;-64
2023/04/27 15:23:17;;;;;;;2.35;1.60;;;;;;;;;;10098642;28;20131;-64
2023/04/27 15:28:10;;;;;;;4.65;1.75;;;;;;;;;;10105191;28;20056;-63
2023/04/27 15:33:03;;;;;;;5.35;1.75;;;;;;;;;;10084257;28;20546;-66
2023/04/27 15:38:00;;;;;;;2.55;1.70;;;;;;;;;;10096163;28;20049;-67
2023/04/27 15:42:54;;;;;;;2.63;1.92;;;;;;;;;;10104851;28;20098;-63
2023/04/27 15:47:48;;;;;;;2.08;1.45;;;;;;;;;;10100917;28;20150;-67
2023/04/27 15:52:41;;;;;;;5.00;1.67;;;;;;;;;;10133183;28;20648;-63
2023/04/27 15:57:35;;;;;;;5.78;1.50;;;;;;;;;;10145531;28;20080;-64
2023/04/27 16:02:29;;;;;;;1.33;1.20;;;;;;;;;;10149703;28;20052;-65
2023/04/27 16:07:23;;;;;;;4.82;1.60;;;;;;;;;;10132011;28;20049;-65
2023/04/27 16:12:16;;;;;;;3.22;1.88;;;;;;;;;;10132787;28;20128;-65
2023/04/27 16:17:10;;;;;;;3.58;1.58;;;;;;;;;;10125788;28;20416;-65
2023/04/27 16:22:05;;;;;;;3.00;1.20;;;;;;;;;;10135129;28;20075;-66
2023/04/27 16:27:00;;;;;;;6.38;1.50;;;;;;;;;;10136026;28;20075;-66
2023/04/27 16:31:54;;;;;;;2.03;1.33;;;;;;;;;;10135125;28;20040;-66
2023/04/27 16:36:48;;;;;;;3.70;1.67;;;;;;;;;;10135008;28;20063;-65
2023/04/27 16:41:42;;;;;;;8.35;2.05;;;;;;;;;;10147779;28;20055;-67
2023/04/27 16:46:36;;;;;;;5.85;1.85;;;;;;;;;;10144929;28;20073;-67
2023/04/27 16:51:29;;;;;;;4.30;2.40;;;;;;;;;;10111359;28;20057;-64
2023/04/27 16:56:50;;;;;;;5.35;2.53;;;;;;;;;;10114235;28;20065;-66
2023/04/27 17:01:47;;;;;;;2.97;1.48;;;;;;;;;;10093259;28;20045;-65
2023/04/27 17:06:43;;;;;;;2.85;1.92;;;;;;;;;;10098054;28;20538;-67
2023/04/27 17:11:37;;;;;;;7.55;2.20;;;;;;;;;;10108282;28;20057;-64
2023/04/27 17:16:32;;;;;;;5.35;2.40;;;;;;;;;;10109139;28;20442;-67
2023/04/27 17:21:30;;;;;;;2.53;1.90;;;;;;;;;;10114947;28;20090;-65
2023/04/27 17:26:24;;;;;;;8.88;2.28;;;;;;;;;;10105564;28;20131;-65
2023/04/27 17:31:18;;;;;;;3.28;1.80;;;;;;;;;;10111929;28;20045;-65
2023/04/27 17:36:13;;;;;;;2.10;1.85;;;;;;;;;;10100439;28;20056;-64
2023/04/27 17:41:08;;;;;;;4.43;2.42;;;;;;;;;;10073726;28;20040;-67
2023/04/27 17:46:09;;;;;;;9.15;1.90;;;;;;;;;;10088610;28;20456;-68
2023/04/27 17:51:03;;;;;;;5.10;1.83;;;;;;;;;;10128677;28;20056;-65
2023/04/27 17:55:56;;;;;;;1.90;1.77;;;;;;;;;;10149751;28;20082;-74
2023/04/27 18:00:50;;;;;;;5.95;1.73;;;;;;;;;;10139813;28;20056;-73
2023/04/27 18:05:44;;;;;;;7.65;3.28;;;;;;;;;;10144774;28;20054;-75
2023/04/27 18:10:37;;;;;;;4.30;2.00;;;;;;;;;;10137752;28;20052;-75
2023/04/27 18:15:31;;;;;;;4.65;1.77;;;;;;;;;;10137388;28;20495;-75
2023/04/27 18:20:24;;;;;;;4.22;2.75;;;;;;;;;;10136877;28;20135;-73
2023/04/27 18:25:19;;;;;;;2.90;2.20;;;;;;;;;;10106260;28;20044;-75
2023/04/27 18:30:13;;;;;;;4.55;1.55;;;;;;;;;;10148369;28;20052;-77
2023/04/27 18:35:06;;;;;;;2.70;1.80;;;;;;;;;;10129551;28;20064;-70
2023/04/27 18:40:00;;;;;;;3.28;1.38;;;;;;;;;;10113496;28;20049;-68
2023/04/27 18:44:54;;;;;;;1.92;1.55;;;;;;;;;;10145726;28;20036;-73
2023/04/27 18:49:50;;;;;;;5.88;2.15;;;;;;;;;;10133105;28;20084;-72
2023/04/27 18:54:43;;;;;;;3.45;1.63;;;;;;;;;;10148868;28;20703;-70
2023/04/27 18:59:39;;;;;;;5.45;1.85;;;;;;;;;;10146753;28;20058;-71
2023/04/27 19:04:34;;;;;;;5.38;2.05;;;;;;;;;;10158256;28;20052;-70
2023/04/27 19:09:28;;;;;;;3.88;2.00;;;;;;;;;;10162366;28;20397;-73
2023/04/27 19:14:23;;;;;;;3.00;1.90;;;;;;;;;;10159796;28;20063;-79
2023/04/27 19:19:17;;;;;;;8.45;2.60;;;;;;;;;;10151337;28;20067;-86
2023/04/27 19:24:09;;;;;;;4.03;1.80;;;;;;;;;;10154664;28;20487;-84
2023/04/27 19:29:03;;;;;;;4.40;2.28;;;;;;;;;;10160090;28;20494;-77
2023/04/27 19:33:59;;;;;;;4.03;2.00;;;;;;;;;;10154449;28;20064;-78
2023/04/27 19:38:56;;;;;;;5.05;2.47;;;;;;;;;;10141779;28;20601;-70
2023/04/27 19:43:49;;;;;;;4.72;2.15;;;;;;;;;;10141116;28;20087;-78
2023/04/27 19:48:42;;;;;;;2.92;2.17;;;;;;;;;;10152242;28;20056;-81
2023/04/27 19:53:37;;;;;;;2.50;1.95;;;;;;;;;;10143562;28;20056;-71
2023/04/27 19:58:34;;;;;;;6.28;2.30;;;;;;;;;;10148479;28;20052;-76
2023/04/27 20:03:28;;;;;;;4.28;2.00;;;;;;;;;;10150953;28;20100;-78
2023/04/27 20:08:23;;;;;;;3.83;2.35;;;;;;;;;;10141564;28;20044;-79
2023/04/27 20:13:16;;;;;;;5.38;3.65;;;;;;;;;;10139453;28;20053;-76
2023/04/27 20:18:10;;;;;;;7.40;4.28;;;;;;;;;;10119665;28;20048;-80
2023/04/27 20:23:04;;;;;;;4.15;3.00;;;;;;;;;;10141805;28;20392;-77
2023/04/27 20:27:58;;;;;;;4.88;2.55;;;;;;;;;;10149283;28;20540;-75
2023/04/27 20:32:53;;;;;;;4.63;2.42;;;;;;;;;;10134972;28;20061;-78
2023/04/27 20:37:47;;;;;;;4.22;2.80;;;;;;;;;;10137804;28;20040;-75
2023/04/27 20:42:41;;;;;;;3.10;2.47;;;;;;;;;;10142754;28;20052;-78
2023/04/27 20:47:35;;;;;;;3.83;3.00;;;;;;;;;;10147685;28;20515;-80
2023/04/27 20:52:28;;;;;;;2.70;2.47;;;;;;;;;;10135566;28;20048;-83
2023/04/27 20:57:26;;;;;;;3.22;2.40;;;;;;;;;;10120008;28;20131;-80
2023/04/27 21:02:20;;;;;;;3.47;3.10;;;;;;;;;;10143718;28;20055;-77
2023/04/27 21:07:14;;;;;;;5.60;2.90;;;;;;;;;;10139447;28;20051;-80
2023/04/27 21:12:09;;;;;;;9.65;3.00;;;;;;;;;;10104140;28;20675;-80
2023/04/27 21:17:02;;;;;;;4.70;3.20;;;;;;;;;;10117299;28;20052;-79
2023/04/27 21:21:56;;;;;;;4.78;3.00;;;;;;;;;;10120442;28;20053;-80
2023/04/27 21:26:51;;;;;;;2.97;2.67;;;;;;;;;;10110005;28;20045;-80
2023/04/27 21:31:45;;;;;;;11.30;3.47;;;;;;;;;;10125596;28;20048;-80
2023/04/27 21:36:39;;;;;;;5.00;3.22;;;;;;;;;;10147486;28;20064;-81
2023/04/27 21:41:38;;;;;;;7.25;5.20;;;;;;;;;;10127564;28;20057;-80
2023/04/27 21:46:32;;;;;;;6.63;3.65;;;;;;;;;;10122749;28;20424;-81
2023/04/27 21:51:26;;;;;;;5.82;4.13;;;;;;;;;;10093250;28;20050;-80
2023/04/27 21:56:20;;;;;;;7.00;4.88;;;;;;;;;;10076983;28;20496;-84
2023/04/27 22:01:14;;;;;;;7.35;4.15;;;;;;;;;;10084459;28;20064;-79
2023/04/27 22:06:08;;;;;;;8.00;4.60;;;;;;;;;;10065732;28;20057;-80
2023/04/27 22:11:02;;;;;;;8.70;4.57;;;;;;;;;;10089131;28;20057;-78
2023/04/27 22:15:55;;;;;;;7.25;4.47;;;;;;;;;;10090857;28;20060;-80
2023/04/27 22:20:50;;;;;;;6.63;4.85;;;;;;;;;;10083677;28;20115;-80
2023/04/27 22:25:44;;;;;;;10.13;5.90;;;;;;;;;;10099238;28;20137;-80
2023/04/27 22:30:41;;;;;;;13.05;5.45;;;;;;;;;;10074100;28;20061;-80
2023/04/27 22:35:35;;;;;;;6.30;4.32;;;;;;;;;;10100659;28;20053;-80
2023/04/27 22:40:28;;;;;;;10.43;5.22;;;;;;;;;;10089597;28;20739;-80
2023/04/27 22:45:22;;;;;;;9.57;4.35;;;;;;;;;;10080479;28;20136;-80
2023/04/27 22:50:15;;;;;;;5.07;4.03;;;;;;;;;;10112731;28;20079;-82
2023/04/27 22:55:10;;;;;;;8.80;4.95;;;;;;;;;;10117505;28;20086;-80
2023/04/27 23:00:07;;;;;;;12.60;6.32;;;;;;;;;;10120782;28;20132;-80
2023/04/27 23:05:02;;;;;;;7.40;5.10;;;;;;;;;;10110861;28;20053;-80
2023/04/27 23:09:59;;;;;;;8.50;4.63;;;;;;;;;;10107174;28;20047;-80
2023/04/27 23:14:54;;;;;;;10.73;4.85;;;;;;;;;;10117835;28;20067;-80
2023/04/27 23:19:48;;;;;;;14.18;5.57;;;;;;;;;;10141755;28;20053;-81
2023/04/27 23:24:42;;;;;;;10.20;5.13;;;;;;;;;;10129999;28;20067;-82
2023/04/27 23:29:35;;;;;;;7.72;5.53;;;;;;;;;;10116356;28;20155;-79
2023/04/27 23:34:30;;;;;;;10.73;5.43;;;;;;;;;;10125897;28;20389;-80
2023/04/27 23:39:24;;;;;;;9.07;5.18;;;;;;;;;;10103141;28;20057;-80
2023/04/27 23:44:17;;;;;;;10.43;5.00;;;;;;;;;;10119264;28;20419;-81
2023/04/27 23:49:12;;;;;;;7.35;5.35;;;;;;;;;;10077733;28;20412;-81
2023/04/27 23:54:06;;;;;;;8.20;5.80;;;;;;;;;;10085190;28;20088;-81
2023/04/27 23:59:00;;;;;;;11.00;5.47;;;;;;;;;;10075819;28;20048;-80
